Parryville, Pennsylvania
Current Conditions -  °F | °C
As of 4:51 PM on Wednesday 28 Jan 2015 (Local Time) from KABE Reporting Station
Clear Clear  
Wind Chill: 18°   Ceiling: Unl
Heat Index: 29°   Visibility: 10mi
Dew Point:   Wind: 14mph
Humidity: 36%   Direction: 320°NW
Pressure: 30.18"   Gusts: NA
Location:  40.82°N, 75.67°W
Report Text: KABE 282151Z 32012KT 10SM CLR M02/M15 A3018 RMK AO2 SLP224 T10171150
Loading
Personal Weather Stations






























Interactive Weather Map New forecast layout! Learn more

10-Day Weather Forecast

Advertisements
Track Severe Weather on mobile